sensor_id;sensor_type;location;lat;lon;timestamp;P1;durP1;ratioP1;P2;durP2;ratioP2
63342;SDS011;49465;57.664;39.686;2023-05-18T00:00:34;8.10;;;5.70;;
63342;SDS011;49465;57.664;39.686;2023-05-18T00:03:06;7.53;;;5.35;;
63342;SDS011;49465;57.664;39.686;2023-05-18T00:05:38;8.30;;;5.18;;
63342;SDS011;49465;57.664;39.686;2023-05-18T00:08:09;6.78;;;5.18;;
63342;SDS011;49465;57.664;39.686;2023-05-18T00:10:44;6.38;;;5.13;;
63342;SDS011;49465;57.664;39.686;2023-05-18T00:13:15;10.98;;;5.25;;
63342;SDS011;49465;57.664;39.686;2023-05-18T00:15:42;6.82;;;5.55;;
63342;SDS011;49465;57.664;39.686;2023-05-18T00:18:14;9.25;;;5.43;;
63342;SDS011;49465;57.664;39.686;2023-05-18T00:20:46;9.48;;;5.80;;
63342;SDS011;49465;57.664;39.686;2023-05-18T00:23:17;6.15;;;5.55;;
63342;SDS011;49465;57.664;39.686;2023-05-18T00:25:49;6.13;;;5.47;;
63342;SDS011;49465;57.664;39.686;2023-05-18T00:28:24;7.57;;;5.50;;
63342;SDS011;49465;57.664;39.686;2023-05-18T00:30:54;6.60;;;5.90;;
63342;SDS011;49465;57.664;39.686;2023-05-18T00:33:26;7.43;;;6.22;;
63342;SDS011;49465;57.664;39.686;2023-05-18T00:35:55;9.05;;;6.03;;
63342;SDS011;49465;57.664;39.686;2023-05-18T00:38:23;7.68;;;5.72;;
63342;SDS011;49465;57.664;39.686;2023-05-18T00:40:56;8.80;;;6.25;;
63342;SDS011;49465;57.664;39.686;2023-05-18T00:43:30;9.00;;;6.07;;
63342;SDS011;49465;57.664;39.686;2023-05-18T00:46:06;10.35;;;5.75;;
63342;SDS011;49465;57.664;39.686;2023-05-18T00:48:33;7.95;;;5.57;;
63342;SDS011;49465;57.664;39.686;2023-05-18T00:51:02;9.70;;;5.57;;
63342;SDS011;49465;57.664;39.686;2023-05-18T00:53:32;9.13;;;5.85;;
63342;SDS011;49465;57.664;39.686;2023-05-18T00:56:05;8.25;;;5.45;;
63342;SDS011;49465;57.664;39.686;2023-05-18T00:58:36;8.57;;;5.38;;
63342;SDS011;49465;57.664;39.686;2023-05-18T01:01:09;7.05;;;5.50;;
63342;SDS011;49465;57.664;39.686;2023-05-18T01:03:41;7.90;;;5.45;;
63342;SDS011;49465;57.664;39.686;2023-05-18T01:06:10;7.38;;;5.78;;
63342;SDS011;49465;57.664;39.686;2023-05-18T01:08:40;7.68;;;5.90;;
63342;SDS011;49465;57.664;39.686;2023-05-18T01:16:31;7.90;;;6.00;;
63342;SDS011;49465;57.664;39.686;2023-05-18T01:22:36;8.55;;;5.90;;
63342;SDS011;49465;57.664;39.686;2023-05-18T01:28:16;9.45;;;5.70;;
63342;SDS011;49465;57.664;39.686;2023-05-18T01:30:50;9.95;;;6.05;;
63342;SDS011;49465;57.664;39.686;2023-05-18T01:33:23;11.20;;;6.18;;
63342;SDS011;49465;57.664;39.686;2023-05-18T01:35:50;15.88;;;6.40;;
63342;SDS011;49465;57.664;39.686;2023-05-18T01:38:21;10.93;;;5.63;;
63342;SDS011;49465;57.664;39.686;2023-05-18T01:44:12;9.95;;;6.07;;
63342;SDS011;49465;57.664;39.686;2023-05-18T01:47:12;11.63;;;6.20;;
63342;SDS011;49465;57.664;39.686;2023-05-18T01:55:17;13.57;;;5.95;;
63342;SDS011;49465;57.664;39.686;2023-05-18T01:57:48;13.07;;;6.07;;
63342;SDS011;49465;57.664;39.686;2023-05-18T02:00:20;11.98;;;5.90;;
63342;SDS011;49465;57.664;39.686;2023-05-18T02:02:52;13.73;;;6.57;;
63342;SDS011;49465;57.664;39.686;2023-05-18T02:05:24;12.68;;;6.43;;
63342;SDS011;49465;57.664;39.686;2023-05-18T02:07:57;15.88;;;6.07;;
63342;SDS011;49465;57.664;39.686;2023-05-18T02:10:26;9.80;;;5.82;;
63342;SDS011;49465;57.664;39.686;2023-05-18T02:12:58;9.77;;;5.97;;
63342;SDS011;49465;57.664;39.686;2023-05-18T02:15:30;9.30;;;5.95;;
63342;SDS011;49465;57.664;39.686;2023-05-18T02:17:59;7.70;;;5.70;;
63342;SDS011;49465;57.664;39.686;2023-05-18T02:20:38;8.73;;;5.63;;
63342;SDS011;49465;57.664;39.686;2023-05-18T02:23:04;8.40;;;5.80;;
63342;SDS011;49465;57.664;39.686;2023-05-18T02:25:33;8.25;;;6.57;;
63342;SDS011;49465;57.664;39.686;2023-05-18T02:28:01;8.52;;;5.95;;
63342;SDS011;49465;57.664;39.686;2023-05-18T02:30:27;6.65;;;5.80;;
63342;SDS011;49465;57.664;39.686;2023-05-18T02:32:57;7.95;;;6.10;;
63342;SDS011;49465;57.664;39.686;2023-05-18T02:35:26;8.57;;;5.55;;
63342;SDS011;49465;57.664;39.686;2023-05-18T02:37:52;7.93;;;6.20;;
63342;SDS011;49465;57.664;39.686;2023-05-18T02:40:22;8.20;;;6.50;;
63342;SDS011;49465;57.664;39.686;2023-05-18T02:42:51;9.98;;;6.18;;
63342;SDS011;49465;57.664;39.686;2023-05-18T02:45:18;7.65;;;6.85;;
63342;SDS011;49465;57.664;39.686;2023-05-18T02:47:45;7.70;;;6.60;;
63342;SDS011;49465;57.664;39.686;2023-05-18T02:50:19;8.30;;;6.90;;
63342;SDS011;49465;57.664;39.686;2023-05-18T02:52:45;9.30;;;7.18;;
63342;SDS011;49465;57.664;39.686;2023-05-18T02:55:14;11.55;;;7.93;;
63342;SDS011;49465;57.664;39.686;2023-05-18T02:57:45;10.40;;;7.28;;
63342;SDS011;49465;57.664;39.686;2023-05-18T03:00:14;9.88;;;7.45;;
63342;SDS011;49465;57.664;39.686;2023-05-18T03:02:42;8.60;;;7.45;;
63342;SDS011;49465;57.664;39.686;2023-05-18T03:05:15;8.40;;;7.47;;
63342;SDS011;49465;57.664;39.686;2023-05-18T03:07:42;8.98;;;7.43;;
63342;SDS011;49465;57.664;39.686;2023-05-18T03:10:14;10.27;;;7.68;;
63342;SDS011;49465;57.664;39.686;2023-05-18T03:12:41;9.98;;;7.40;;
63342;SDS011;49465;57.664;39.686;2023-05-18T03:15:10;9.82;;;7.55;;
63342;SDS011;49465;57.664;39.686;2023-05-18T03:17:41;10.18;;;7.55;;
63342;SDS011;49465;57.664;39.686;2023-05-18T03:20:08;9.63;;;7.57;;
63342;SDS011;49465;57.664;39.686;2023-05-18T03:22:39;8.70;;;7.60;;
63342;SDS011;49465;57.664;39.686;2023-05-18T03:25:13;10.20;;;7.55;;
63342;SDS011;49465;57.664;39.686;2023-05-18T03:27:40;10.30;;;7.65;;
63342;SDS011;49465;57.664;39.686;2023-05-18T03:30:07;9.40;;;7.40;;
63342;SDS011;49465;57.664;39.686;2023-05-18T03:32:37;10.73;;;7.40;;
63342;SDS011;49465;57.664;39.686;2023-05-18T03:35:05;11.18;;;7.65;;
63342;SDS011;49465;57.664;39.686;2023-05-18T03:37:32;14.95;;;8.45;;
63342;SDS011;49465;57.664;39.686;2023-05-18T03:40:07;9.40;;;7.47;;
63342;SDS011;49465;57.664;39.686;2023-05-18T03:42:36;11.38;;;7.72;;
63342;SDS011;49465;57.664;39.686;2023-05-18T03:45:06;15.52;;;8.20;;
63342;SDS011;49465;57.664;39.686;2023-05-18T03:47:33;11.07;;;7.75;;
63342;SDS011;49465;57.664;39.686;2023-05-18T03:50:02;11.20;;;7.30;;
63342;SDS011;49465;57.664;39.686;2023-05-18T03:52:29;12.10;;;7.45;;
63342;SDS011;49465;57.664;39.686;2023-05-18T03:54:58;14.68;;;8.27;;
63342;SDS011;49465;57.664;39.686;2023-05-18T03:57:30;13.45;;;7.75;;
63342;SDS011;49465;57.664;39.686;2023-05-18T03:59:57;14.60;;;7.45;;
63342;SDS011;49465;57.664;39.686;2023-05-18T04:02:24;9.77;;;6.80;;
63342;SDS011;49465;57.664;39.686;2023-05-18T04:04:50;8.90;;;6.97;;
63342;SDS011;49465;57.664;39.686;2023-05-18T04:07:18;8.45;;;6.88;;
63342;SDS011;49465;57.664;39.686;2023-05-18T04:09:48;9.32;;;6.85;;
63342;SDS011;49465;57.664;39.686;2023-05-18T04:12:16;8.13;;;6.82;;
63342;SDS011;49465;57.664;39.686;2023-05-18T04:14:42;9.77;;;7.03;;
63342;SDS011;49465;57.664;39.686;2023-05-18T04:17:15;10.80;;;6.38;;
63342;SDS011;49465;57.664;39.686;2023-05-18T04:19:42;13.23;;;7.35;;
63342;SDS011;49465;57.664;39.686;2023-05-18T04:22:11;308.70;;;16.33;;
63342;SDS011;49465;57.664;39.686;2023-05-18T04:24:39;12.50;;;6.70;;
63342;SDS011;49465;57.664;39.686;2023-05-18T04:27:11;13.68;;;8.02;;
63342;SDS011;49465;57.664;39.686;2023-05-18T04:29:38;8.40;;;6.75;;
63342;SDS011;49465;57.664;39.686;2023-05-18T04:32:05;9.23;;;6.32;;
63342;SDS011;49465;57.664;39.686;2023-05-18T04:34:32;12.70;;;6.32;;
63342;SDS011;49465;57.664;39.686;2023-05-18T04:37:02;9.18;;;6.25;;
63342;SDS011;49465;57.664;39.686;2023-05-18T04:39:42;8.50;;;6.13;;
63342;SDS011;49465;57.664;39.686;2023-05-18T04:42:08;8.43;;;6.00;;
63342;SDS011;49465;57.664;39.686;2023-05-18T04:44:34;23.65;;;6.28;;
63342;SDS011;49465;57.664;39.686;2023-05-18T04:47:03;10.75;;;5.82;;
63342;SDS011;49465;57.664;39.686;2023-05-18T04:49:32;9.38;;;5.88;;
63342;SDS011;49465;57.664;39.686;2023-05-18T04:51:59;11.73;;;6.07;;
63342;SDS011;49465;57.664;39.686;2023-05-18T04:54:26;11.05;;;5.40;;
63342;SDS011;49465;57.664;39.686;2023-05-18T04:56:58;10.73;;;5.90;;
63342;SDS011;49465;57.664;39.686;2023-05-18T04:59:26;34.75;;;6.00;;
63342;SDS011;49465;57.664;39.686;2023-05-18T05:01:55;7.93;;;5.50;;
63342;SDS011;49465;57.664;39.686;2023-05-18T05:04:24;8.93;;;5.40;;
63342;SDS011;49465;57.664;39.686;2023-05-18T05:06:53;7.95;;;5.45;;
63342;SDS011;49465;57.664;39.686;2023-05-18T05:09:39;17.40;;;5.68;;
63342;SDS011;49465;57.664;39.686;2023-05-18T05:12:06;11.43;;;6.80;;
63342;SDS011;49465;57.664;39.686;2023-05-18T05:14:32;6.97;;;5.60;;
63342;SDS011;49465;57.664;39.686;2023-05-18T05:17:01;12.50;;;6.63;;
63342;SDS011;49465;57.664;39.686;2023-05-18T05:19:27;18.98;;;12.30;;
63342;SDS011;49465;57.664;39.686;2023-05-18T05:21:56;15.25;;;10.23;;
63342;SDS011;49465;57.664;39.686;2023-05-18T05:24:25;10.43;;;6.50;;
63342;SDS011;49465;57.664;39.686;2023-05-18T05:26:54;9.57;;;6.93;;
63342;SDS011;49465;57.664;39.686;2023-05-18T05:29:23;12.82;;;6.38;;
63342;SDS011;49465;57.664;39.686;2023-05-18T05:31:50;13.82;;;5.85;;
63342;SDS011;49465;57.664;39.686;2023-05-18T05:34:19;10.55;;;5.63;;
63342;SDS011;49465;57.664;39.686;2023-05-18T05:36:55;6.47;;;5.35;;
63342;SDS011;49465;57.664;39.686;2023-05-18T05:39:24;7.00;;;4.97;;
63342;SDS011;49465;57.664;39.686;2023-05-18T05:41:53;9.65;;;5.13;;
63342;SDS011;49465;57.664;39.686;2023-05-18T05:44:24;7.10;;;5.13;;
63342;SDS011;49465;57.664;39.686;2023-05-18T05:46:53;7.50;;;5.22;;
63342;SDS011;49465;57.664;39.686;2023-05-18T05:49:23;6.85;;;5.03;;
63342;SDS011;49465;57.664;39.686;2023-05-18T05:51:52;8.70;;;5.03;;
63342;SDS011;49465;57.664;39.686;2023-05-18T05:54:19;6.80;;;5.00;;
63342;SDS011;49465;57.664;39.686;2023-05-18T05:56:48;7.15;;;4.68;;
63342;SDS011;49465;57.664;39.686;2023-05-18T05:59:14;8.82;;;5.05;;
63342;SDS011;49465;57.664;39.686;2023-05-18T06:01:46;7.20;;;4.70;;
63342;SDS011;49465;57.664;39.686;2023-05-18T06:04:12;8.77;;;5.00;;
63342;SDS011;49465;57.664;39.686;2023-05-18T06:06:42;6.75;;;4.43;;
63342;SDS011;49465;57.664;39.686;2023-05-18T06:09:17;7.05;;;4.43;;
63342;SDS011;49465;57.664;39.686;2023-05-18T06:11:44;9.95;;;4.25;;
63342;SDS011;49465;57.664;39.686;2023-05-18T06:14:10;6.57;;;4.20;;
63342;SDS011;49465;57.664;39.686;2023-05-18T06:16:37;4.95;;;4.28;;
63342;SDS011;49465;57.664;39.686;2023-05-18T06:19:06;36.22;;;4.93;;
63342;SDS011;49465;57.664;39.686;2023-05-18T06:21:35;6.18;;;4.45;;
63342;SDS011;49465;57.664;39.686;2023-05-18T06:24:01;9.38;;;4.30;;
63342;SDS011;49465;57.664;39.686;2023-05-18T06:26:31;9.80;;;4.20;;
63342;SDS011;49465;57.664;39.686;2023-05-18T06:28:57;6.78;;;3.92;;
63342;SDS011;49465;57.664;39.686;2023-05-18T06:31:24;7.20;;;4.07;;
63342;SDS011;49465;57.664;39.686;2023-05-18T06:33:50;7.03;;;4.30;;
63342;SDS011;49465;57.664;39.686;2023-05-18T06:36:19;9.95;;;4.32;;
63342;SDS011;49465;57.664;39.686;2023-05-18T06:38:49;8.32;;;3.83;;
63342;SDS011;49465;57.664;39.686;2023-05-18T06:41:15;5.43;;;4.03;;
63342;SDS011;49465;57.664;39.686;2023-05-18T06:43:46;7.78;;;3.70;;
63342;SDS011;49465;57.664;39.686;2023-05-18T06:46:22;7.95;;;3.95;;
63342;SDS011;49465;57.664;39.686;2023-05-18T06:48:52;6.38;;;4.10;;
63342;SDS011;49465;57.664;39.686;2023-05-18T06:51:23;6.13;;;3.65;;
63342;SDS011;49465;57.664;39.686;2023-05-18T06:53:55;6.68;;;3.83;;
63342;SDS011;49465;57.664;39.686;2023-05-18T06:56:22;8.55;;;3.80;;
63342;SDS011;49465;57.664;39.686;2023-05-18T06:58:48;7.03;;;3.88;;
63342;SDS011;49465;57.664;39.686;2023-05-18T07:01:15;4.82;;;3.80;;
63342;SDS011;49465;57.664;39.686;2023-05-18T07:03:47;9.27;;;3.80;;
63342;SDS011;49465;57.664;39.686;2023-05-18T07:06:13;5.57;;;3.28;;
63342;SDS011;49465;57.664;39.686;2023-05-18T07:08:40;8.88;;;3.53;;
63342;SDS011;49465;57.664;39.686;2023-05-18T07:11:10;7.53;;;3.70;;
63342;SDS011;49465;57.664;39.686;2023-05-18T07:13:37;7.68;;;3.75;;
63342;SDS011;49465;57.664;39.686;2023-05-18T07:16:09;5.20;;;3.72;;
63342;SDS011;49465;57.664;39.686;2023-05-18T07:18:35;6.68;;;4.00;;
63342;SDS011;49465;57.664;39.686;2023-05-18T07:21:02;5.63;;;3.80;;
63342;SDS011;49465;57.664;39.686;2023-05-18T07:23:29;5.53;;;3.72;;
63342;SDS011;49465;57.664;39.686;2023-05-18T07:25:58;6.00;;;3.80;;
63342;SDS011;49465;57.664;39.686;2023-05-18T07:28:34;7.60;;;3.78;;
63342;SDS011;49465;57.664;39.686;2023-05-18T07:31:17;11.73;;;7.03;;
63342;SDS011;49465;57.664;39.686;2023-05-18T07:33:46;29.80;;;11.25;;
63342;SDS011;49465;57.664;39.686;2023-05-18T07:36:12;38.53;;;15.27;;
63342;SDS011;49465;57.664;39.686;2023-05-18T07:38:42;31.55;;;7.45;;
63342;SDS011;49465;57.664;39.686;2023-05-18T07:41:08;79.10;;;8.43;;
63342;SDS011;49465;57.664;39.686;2023-05-18T07:43:35;14.93;;;5.28;;
63342;SDS011;49465;57.664;39.686;2023-05-18T07:46:01;262.33;;;18.85;;
63342;SDS011;49465;57.664;39.686;2023-05-18T07:48:27;17.80;;;6.03;;
63342;SDS011;49465;57.664;39.686;2023-05-18T07:50:55;10.32;;;4.40;;
63342;SDS011;49465;57.664;39.686;2023-05-18T07:53:25;7.05;;;4.47;;
63342;SDS011;49465;57.664;39.686;2023-05-18T07:55:52;6.47;;;3.90;;
63342;SDS011;49465;57.664;39.686;2023-05-18T07:58:19;7.50;;;3.75;;
63342;SDS011;49465;57.664;39.686;2023-05-18T08:00:48;6.53;;;3.53;;
63342;SDS011;49465;57.664;39.686;2023-05-18T08:03:14;7.65;;;3.72;;
63342;SDS011;49465;57.664;39.686;2023-05-18T08:05:48;4.30;;;3.60;;
63342;SDS011;49465;57.664;39.686;2023-05-18T08:08:14;4.15;;;3.72;;
63342;SDS011;49465;57.664;39.686;2023-05-18T08:10:49;7.13;;;4.22;;
63342;SDS011;49465;57.664;39.686;2023-05-18T08:13:17;7.13;;;4.05;;
63342;SDS011;49465;57.664;39.686;2023-05-18T08:15:43;8.25;;;4.00;;
63342;SDS011;49465;57.664;39.686;2023-05-18T08:18:10;8.07;;;3.65;;
63342;SDS011;49465;57.664;39.686;2023-05-18T08:20:36;8.02;;;4.15;;
63342;SDS011;49465;57.664;39.686;2023-05-18T08:23:03;6.85;;;3.88;;
63342;SDS011;49465;57.664;39.686;2023-05-18T08:25:29;9.45;;;4.50;;
63342;SDS011;49465;57.664;39.686;2023-05-18T08:27:56;5.55;;;3.58;;
63342;SDS011;49465;57.664;39.686;2023-05-18T08:30:26;7.88;;;4.07;;
63342;SDS011;49465;57.664;39.686;2023-05-18T08:32:52;6.32;;;3.80;;
63342;SDS011;49465;57.664;39.686;2023-05-18T08:35:18;5.20;;;4.10;;
63342;SDS011;49465;57.664;39.686;2023-05-18T08:37:45;5.72;;;3.92;;
63342;SDS011;49465;57.664;39.686;2023-05-18T08:40:11;6.90;;;3.90;;
63342;SDS011;49465;57.664;39.686;2023-05-18T08:42:39;6.43;;;4.18;;
63342;SDS011;49465;57.664;39.686;2023-05-18T08:48:07;6.10;;;3.80;;
63342;SDS011;49465;57.664;39.686;2023-05-18T08:50:37;7.07;;;3.97;;
63342;SDS011;49465;57.664;39.686;2023-05-18T08:53:06;6.43;;;4.50;;
63342;SDS011;49465;57.664;39.686;2023-05-18T08:55:36;8.02;;;4.10;;
63342;SDS011;49465;57.664;39.686;2023-05-18T08:58:06;7.93;;;4.10;;
63342;SDS011;49465;57.664;39.686;2023-05-18T09:00:37;12.23;;;4.32;;
63342;SDS011;49465;57.664;39.686;2023-05-18T09:03:04;15.35;;;4.47;;
63342;SDS011;49465;57.664;39.686;2023-05-18T09:05:31;8.77;;;4.00;;
63342;SDS011;49465;57.664;39.686;2023-05-18T09:07:57;7.57;;;3.75;;
63342;SDS011;49465;57.664;39.686;2023-05-18T09:10:24;13.02;;;4.10;;
63342;SDS011;49465;57.664;39.686;2023-05-18T09:12:51;6.55;;;3.78;;
63342;SDS011;49465;57.664;39.686;2023-05-18T09:15:18;6.72;;;3.80;;
63342;SDS011;49465;57.664;39.686;2023-05-18T09:17:45;7.35;;;3.40;;
63342;SDS011;49465;57.664;39.686;2023-05-18T09:20:12;8.25;;;3.90;;
63342;SDS011;49465;57.664;39.686;2023-05-18T09:22:42;6.45;;;3.70;;
63342;SDS011;49465;57.664;39.686;2023-05-18T09:25:09;8.02;;;3.67;;
63342;SDS011;49465;57.664;39.686;2023-05-18T09:27:36;6.00;;;3.95;;
63342;SDS011;49465;57.664;39.686;2023-05-18T09:30:02;7.70;;;3.72;;
63342;SDS011;49465;57.664;39.686;2023-05-18T09:32:30;13.88;;;3.80;;
63342;SDS011;49465;57.664;39.686;2023-05-18T09:35:05;6.60;;;3.45;;
63342;SDS011;49465;57.664;39.686;2023-05-18T09:37:33;7.00;;;3.80;;
63342;SDS011;49465;57.664;39.686;2023-05-18T09:40:00;5.80;;;3.60;;
63342;SDS011;49465;57.664;39.686;2023-05-18T09:42:36;9.13;;;3.50;;
63342;SDS011;49465;57.664;39.686;2023-05-18T09:45:06;9.00;;;3.65;;
63342;SDS011;49465;57.664;39.686;2023-05-18T09:47:43;4.57;;;3.55;;
63342;SDS011;49465;57.664;39.686;2023-05-18T09:50:10;7.72;;;3.33;;
63342;SDS011;49465;57.664;39.686;2023-05-18T09:52:39;7.63;;;4.32;;
63342;SDS011;49465;57.664;39.686;2023-05-18T09:55:07;9.75;;;4.07;;
63342;SDS011;49465;57.664;39.686;2023-05-18T09:57:44;5.07;;;3.70;;
63342;SDS011;49465;57.664;39.686;2023-05-18T10:00:13;8.27;;;3.90;;
63342;SDS011;49465;57.664;39.686;2023-05-18T10:02:42;6.25;;;3.50;;
63342;SDS011;49465;57.664;39.686;2023-05-18T10:05:25;13.18;;;3.65;;
63342;SDS011;49465;57.664;39.686;2023-05-18T10:07:55;7.97;;;3.25;;
63342;SDS011;49465;57.664;39.686;2023-05-18T10:10:24;5.70;;;3.40;;
63342;SDS011;49465;57.664;39.686;2023-05-18T10:12:52;9.40;;;3.38;;
63342;SDS011;49465;57.664;39.686;2023-05-18T10:15:21;5.57;;;3.60;;
63342;SDS011;49465;57.664;39.686;2023-05-18T10:17:49;6.45;;;3.50;;
63342;SDS011;49465;57.664;39.686;2023-05-18T10:20:20;6.55;;;3.40;;
63342;SDS011;49465;57.664;39.686;2023-05-18T10:22:51;6.80;;;3.27;;
63342;SDS011;49465;57.664;39.686;2023-05-18T10:25:24;8.60;;;3.33;;
63342;SDS011;49465;57.664;39.686;2023-05-18T10:27:54;8.43;;;3.40;;
63342;SDS011;49465;57.664;39.686;2023-05-18T10:30:22;4.75;;;3.20;;
63342;SDS011;49465;57.664;39.686;2023-05-18T10:32:50;7.07;;;3.53;;
63342;SDS011;49465;57.664;39.686;2023-05-18T10:35:19;3.95;;;3.30;;
63342;SDS011;49465;57.664;39.686;2023-05-18T10:37:47;3.45;;;3.00;;
63342;SDS011;49465;57.664;39.686;2023-05-18T10:40:19;4.10;;;3.47;;
63342;SDS011;49465;57.664;39.686;2023-05-18T10:42:50;5.72;;;3.40;;
63342;SDS011;49465;57.664;39.686;2023-05-18T10:45:17;9.15;;;3.47;;
63342;SDS011;49465;57.664;39.686;2023-05-18T10:47:44;3.88;;;2.95;;
63342;SDS011;49465;57.664;39.686;2023-05-18T10:50:18;6.20;;;3.00;;
63342;SDS011;49465;57.664;39.686;2023-05-18T10:52:49;8.70;;;3.10;;
63342;SDS011;49465;57.664;39.686;2023-05-18T10:55:17;6.63;;;2.70;;
63342;SDS011;49465;57.664;39.686;2023-05-18T10:57:55;4.13;;;2.67;;
63342;SDS011;49465;57.664;39.686;2023-05-18T11:00:28;4.22;;;3.13;;
63342;SDS011;49465;57.664;39.686;2023-05-18T11:02:58;4.45;;;3.10;;
63342;SDS011;49465;57.664;39.686;2023-05-18T11:05:26;5.10;;;3.22;;
63342;SDS011;49465;57.664;39.686;2023-05-18T11:07:59;4.22;;;2.92;;
63342;SDS011;49465;57.664;39.686;2023-05-18T11:10:42;7.50;;;3.25;;
63342;SDS011;49465;57.664;39.686;2023-05-18T11:13:12;9.80;;;3.47;;
63342;SDS011;49465;57.664;39.686;2023-05-18T11:18:18;4.72;;;2.90;;
63342;SDS011;49465;57.664;39.686;2023-05-18T11:20:53;7.55;;;3.10;;
63342;SDS011;49465;57.664;39.686;2023-05-18T11:23:22;4.82;;;2.88;;
63342;SDS011;49465;57.664;39.686;2023-05-18T11:25:48;4.13;;;3.08;;
63342;SDS011;49465;57.664;39.686;2023-05-18T11:28:18;5.10;;;3.22;;
63342;SDS011;49465;57.664;39.686;2023-05-18T11:30:50;4.10;;;2.38;;
63342;SDS011;49465;57.664;39.686;2023-05-18T11:41:27;6.63;;;3.20;;
63342;SDS011;49465;57.664;39.686;2023-05-18T11:46:46;7.78;;;2.95;;
63342;SDS011;49465;57.664;39.686;2023-05-18T11:49:19;5.25;;;3.17;;
63342;SDS011;49465;57.664;39.686;2023-05-18T11:54:25;6.68;;;3.08;;
63342;SDS011;49465;57.664;39.686;2023-05-18T11:56:52;7.90;;;2.83;;
63342;SDS011;49465;57.664;39.686;2023-05-18T11:59:32;11.80;;;3.13;;
63342;SDS011;49465;57.664;39.686;2023-05-18T12:02:01;5.05;;;2.72;;
63342;SDS011;49465;57.664;39.686;2023-05-18T12:04:32;5.43;;;2.90;;
63342;SDS011;49465;57.664;39.686;2023-05-18T12:07:08;4.07;;;2.83;;
63342;SDS011;49465;57.664;39.686;2023-05-18T12:09:45;7.95;;;2.75;;
63342;SDS011;49465;57.664;39.686;2023-05-18T12:12:13;5.45;;;2.88;;
63342;SDS011;49465;57.664;39.686;2023-05-18T12:22:36;9.05;;;2.80;;
63342;SDS011;49465;57.664;39.686;2023-05-18T12:25:08;7.25;;;2.60;;
63342;SDS011;49465;57.664;39.686;2023-05-18T12:27:38;6.10;;;2.35;;
63342;SDS011;49465;57.664;39.686;2023-05-18T12:30:11;7.30;;;2.75;;
63342;SDS011;49465;57.664;39.686;2023-05-18T12:32:49;5.72;;;2.55;;
63342;SDS011;49465;57.664;39.686;2023-05-18T12:35:20;2.67;;;2.47;;
63342;SDS011;49465;57.664;39.686;2023-05-18T12:37:48;4.07;;;2.45;;
63342;SDS011;49465;57.664;39.686;2023-05-18T12:40:15;3.92;;;2.65;;
63342;SDS011;49465;57.664;39.686;2023-05-18T12:42:52;4.55;;;2.40;;
63342;SDS011;49465;57.664;39.686;2023-05-18T12:45:22;4.60;;;2.50;;
63342;SDS011;49465;57.664;39.686;2023-05-18T12:47:52;5.13;;;2.55;;
63342;SDS011;49465;57.664;39.686;2023-05-18T12:50:22;4.18;;;2.80;;
63342;SDS011;49465;57.664;39.686;2023-05-18T12:52:53;3.25;;;2.40;;
63342;SDS011;49465;57.664;39.686;2023-05-18T12:55:22;4.10;;;2.50;;
63342;SDS011;49465;57.664;39.686;2023-05-18T13:00:41;4.93;;;2.40;;
63342;SDS011;49465;57.664;39.686;2023-05-18T13:03:10;5.80;;;2.80;;
63342;SDS011;49465;57.664;39.686;2023-05-18T13:05:41;8.25;;;2.70;;
63342;SDS011;49465;57.664;39.686;2023-05-18T13:08:16;5.05;;;2.47;;
63342;SDS011;49465;57.664;39.686;2023-05-18T13:10:47;6.38;;;2.55;;
63342;SDS011;49465;57.664;39.686;2023-05-18T13:13:14;7.18;;;2.53;;
63342;SDS011;49465;57.664;39.686;2023-05-18T13:15:41;3.53;;;2.30;;
63342;SDS011;49465;57.664;39.686;2023-05-18T13:18:08;8.27;;;2.33;;
63342;SDS011;49465;57.664;39.686;2023-05-18T13:23:08;5.68;;;2.55;;
63342;SDS011;49465;57.664;39.686;2023-05-18T13:25:36;4.80;;;2.47;;
63342;SDS011;49465;57.664;39.686;2023-05-18T13:28:03;8.27;;;2.70;;
63342;SDS011;49465;57.664;39.686;2023-05-18T13:30:40;9.52;;;2.30;;
63342;SDS011;49465;57.664;39.686;2023-05-18T13:33:07;6.05;;;2.33;;
63342;SDS011;49465;57.664;39.686;2023-05-18T13:35:38;5.55;;;2.38;;
63342;SDS011;49465;57.664;39.686;2023-05-18T13:38:06;9.70;;;2.28;;
63342;SDS011;49465;57.664;39.686;2023-05-18T13:40:37;10.30;;;2.30;;
63342;SDS011;49465;57.664;39.686;2023-05-18T13:43:04;3.92;;;2.10;;
63342;SDS011;49465;57.664;39.686;2023-05-18T13:45:31;3.15;;;2.10;;
63342;SDS011;49465;57.664;39.686;2023-05-18T13:48:01;4.90;;;2.30;;
63342;SDS011;49465;57.664;39.686;2023-05-18T13:50:31;5.78;;;2.35;;
63342;SDS011;49465;57.664;39.686;2023-05-18T13:52:58;6.00;;;2.10;;
63342;SDS011;49465;57.664;39.686;2023-05-18T13:55:25;3.88;;;2.00;;
63342;SDS011;49465;57.664;39.686;2023-05-18T13:57:51;2.60;;;2.03;;
63342;SDS011;49465;57.664;39.686;2023-05-18T14:00:17;3.78;;;1.80;;
63342;SDS011;49465;57.664;39.686;2023-05-18T14:02:45;3.63;;;2.03;;
63342;SDS011;49465;57.664;39.686;2023-05-18T14:05:12;4.97;;;1.90;;
63342;SDS011;49465;57.664;39.686;2023-05-18T14:07:41;6.57;;;1.77;;
63342;SDS011;49465;57.664;39.686;2023-05-18T14:10:08;4.20;;;1.95;;
63342;SDS011;49465;57.664;39.686;2023-05-18T14:12:36;5.00;;;1.75;;
63342;SDS011;49465;57.664;39.686;2023-05-18T14:15:03;3.78;;;1.67;;
63342;SDS011;49465;57.664;39.686;2023-05-18T14:17:30;10.73;;;1.95;;
63342;SDS011;49465;57.664;39.686;2023-05-18T14:19:57;5.30;;;1.88;;
63342;SDS011;49465;57.664;39.686;2023-05-18T14:22:24;4.40;;;1.90;;
63342;SDS011;49465;57.664;39.686;2023-05-18T14:24:50;5.18;;;1.80;;
63342;SDS011;49465;57.664;39.686;2023-05-18T14:27:19;2.15;;;1.58;;
63342;SDS011;49465;57.664;39.686;2023-05-18T14:29:46;65.60;;;4.20;;
63342;SDS011;49465;57.664;39.686;2023-05-18T14:32:13;6.22;;;1.85;;
63342;SDS011;49465;57.664;39.686;2023-05-18T14:34:39;9.48;;;1.90;;
63342;SDS011;49465;57.664;39.686;2023-05-18T14:37:06;3.58;;;1.83;;
63342;SDS011;49465;57.664;39.686;2023-05-18T14:39:32;4.43;;;1.85;;
63342;SDS011;49465;57.664;39.686;2023-05-18T14:41:59;3.10;;;2.00;;
63342;SDS011;49465;57.664;39.686;2023-05-18T14:44:31;4.00;;;1.80;;
63342;SDS011;49465;57.664;39.686;2023-05-18T14:46:57;5.20;;;2.00;;
63342;SDS011;49465;57.664;39.686;2023-05-18T14:49:24;2.70;;;1.75;;
63342;SDS011;49465;57.664;39.686;2023-05-18T14:51:50;3.55;;;1.65;;
63342;SDS011;49465;57.664;39.686;2023-05-18T14:54:16;4.22;;;2.08;;
63342;SDS011;49465;57.664;39.686;2023-05-18T14:56:44;9.45;;;5.32;;
63342;SDS011;49465;57.664;39.686;2023-05-18T14:59:11;7.28;;;4.10;;
63342;SDS011;49465;57.664;39.686;2023-05-18T15:01:37;9.02;;;3.05;;
63342;SDS011;49465;57.664;39.686;2023-05-18T15:04:03;5.32;;;2.50;;
63342;SDS011;49465;57.664;39.686;2023-05-18T15:06:30;4.57;;;2.83;;
63342;SDS011;49465;57.664;39.686;2023-05-18T15:08:57;8.15;;;3.65;;
63342;SDS011;49465;57.664;39.686;2023-05-18T15:11:23;8.68;;;4.15;;
63342;SDS011;49465;57.664;39.686;2023-05-18T15:13:50;6.32;;;4.82;;
63342;SDS011;49465;57.664;39.686;2023-05-18T15:16:16;6.45;;;4.45;;
63342;SDS011;49465;57.664;39.686;2023-05-18T15:18:44;4.53;;;2.95;;
63342;SDS011;49465;57.664;39.686;2023-05-18T15:21:10;5.53;;;4.20;;
63342;SDS011;49465;57.664;39.686;2023-05-18T15:23:37;11.50;;;5.38;;
63342;SDS011;49465;57.664;39.686;2023-05-18T15:26:03;11.70;;;6.25;;
63342;SDS011;49465;57.664;39.686;2023-05-18T15:28:29;13.52;;;6.32;;
63342;SDS011;49465;57.664;39.686;2023-05-18T15:30:56;6.38;;;4.40;;
63342;SDS011;49465;57.664;39.686;2023-05-18T15:35:55;6.78;;;5.25;;
63342;SDS011;49465;57.664;39.686;2023-05-18T15:38:26;6.18;;;2.97;;